Hitachi, Japan
Current Conditions -  °F | °C
As of 5:26 PM on Wednesday 22 Oct 2014 (Local Time) from RJAH Reporting Station
Rain Showers Rain Showers  
Wind Chill: 55°   Ceiling: 1500
Heat Index: 55°   Visibility: 4mi
Dew Point: 54°   Wind: 10mph
Humidity: 94%   Direction: 20°NNE
Pressure: 29.91"   Gusts: NA
Location:  36.59°N, 140.66°E
Report Text: RJAH 220826Z 02009KT 6000 -SHRA FEW008 SCT010 OVC015 13/12 Q1013 RMK 2ST008 3ST010 8CU015 A2991
Loading
Personal Weather Stations






























Interactive Weather Map
Tropical Storm Tracking
New forecast layout! Learn more

10-Day Weather Forecast

Advertisements
Track Severe Weather on mobile